sensor_id;sensor_type;location;lat;lon;timestamp;P1;durP1;ratioP1;P2;durP2;ratioP2
44276;SDS011;29973;43.742;1.236;2022-08-18T00:04:40;8.18;;;2.47;;
44276;SDS011;29973;43.742;1.236;2022-08-18T00:07:07;7.90;;;2.53;;
44276;SDS011;29973;43.742;1.236;2022-08-18T00:09:36;5.45;;;2.65;;
44276;SDS011;29973;43.742;1.236;2022-08-18T00:12:04;8.02;;;2.78;;
44276;SDS011;29973;43.742;1.236;2022-08-18T00:14:33;7.03;;;2.80;;
44276;SDS011;29973;43.742;1.236;2022-08-18T00:16:58;7.75;;;3.20;;
44276;SDS011;29973;43.742;1.236;2022-08-18T00:19:25;6.05;;;2.80;;
44276;SDS011;29973;43.742;1.236;2022-08-18T00:21:50;8.52;;;2.67;;
44276;SDS011;29973;43.742;1.236;2022-08-18T00:24:16;10.52;;;3.00;;
44276;SDS011;29973;43.742;1.236;2022-08-18T00:26:42;10.68;;;3.15;;
44276;SDS011;29973;43.742;1.236;2022-08-18T00:29:08;10.32;;;2.70;;
44276;SDS011;29973;43.742;1.236;2022-08-18T00:31:34;8.60;;;3.25;;
44276;SDS011;29973;43.742;1.236;2022-08-18T00:33:59;5.75;;;3.33;;
44276;SDS011;29973;43.742;1.236;2022-08-18T00:36:26;8.30;;;3.00;;
44276;SDS011;29973;43.742;1.236;2022-08-18T00:38:52;9.52;;;2.80;;
44276;SDS011;29973;43.742;1.236;2022-08-18T00:41:18;11.02;;;3.30;;
44276;SDS011;29973;43.742;1.236;2022-08-18T00:43:46;9.85;;;3.17;;
44276;SDS011;29973;43.742;1.236;2022-08-18T00:46:19;7.20;;;2.83;;
44276;SDS011;29973;43.742;1.236;2022-08-18T00:48:52;15.75;;;3.08;;
44276;SDS011;29973;43.742;1.236;2022-08-18T00:51:27;13.57;;;3.13;;
44276;SDS011;29973;43.742;1.236;2022-08-18T00:56:33;7.50;;;2.92;;
44276;SDS011;29973;43.742;1.236;2022-08-18T01:01:33;13.20;;;3.75;;
44276;SDS011;29973;43.742;1.236;2022-08-18T01:04:05;13.65;;;3.10;;
44276;SDS011;29973;43.742;1.236;2022-08-18T01:06:37;10.18;;;3.25;;
44276;SDS011;29973;43.742;1.236;2022-08-18T01:11:32;4.53;;;2.70;;
44276;SDS011;29973;43.742;1.236;2022-08-18T01:14:01;7.03;;;3.47;;
44276;SDS011;29973;43.742;1.236;2022-08-18T01:16:27;6.45;;;3.10;;
44276;SDS011;29973;43.742;1.236;2022-08-18T01:19:12;11.32;;;3.17;;
44276;SDS011;29973;43.742;1.236;2022-08-18T01:21:59;10.35;;;3.28;;
44276;SDS011;29973;43.742;1.236;2022-08-18T01:24:30;8.50;;;3.30;;
44276;SDS011;29973;43.742;1.236;2022-08-18T01:27:18;10.25;;;2.55;;
44276;SDS011;29973;43.742;1.236;2022-08-18T01:29:44;15.00;;;4.13;;
44276;SDS011;29973;43.742;1.236;2022-08-18T01:32:13;9.50;;;3.65;;
44276;SDS011;29973;43.742;1.236;2022-08-18T01:34:45;14.55;;;3.90;;
44276;SDS011;29973;43.742;1.236;2022-08-18T01:37:13;8.52;;;3.28;;
44276;SDS011;29973;43.742;1.236;2022-08-18T01:39:42;7.32;;;3.38;;
44276;SDS011;29973;43.742;1.236;2022-08-18T01:42:09;12.50;;;4.00;;
44276;SDS011;29973;43.742;1.236;2022-08-18T01:44:36;14.68;;;4.25;;
44276;SDS011;29973;43.742;1.236;2022-08-18T01:47:05;7.95;;;3.58;;
44276;SDS011;29973;43.742;1.236;2022-08-18T01:49:32;10.57;;;3.63;;
44276;SDS011;29973;43.742;1.236;2022-08-18T01:51:58;8.40;;;3.50;;
44276;SDS011;29973;43.742;1.236;2022-08-18T01:54:24;13.60;;;3.78;;
44276;SDS011;29973;43.742;1.236;2022-08-18T01:56:53;13.82;;;3.60;;
44276;SDS011;29973;43.742;1.236;2022-08-18T01:59:19;10.63;;;4.15;;
44276;SDS011;29973;43.742;1.236;2022-08-18T02:01:46;14.05;;;4.00;;
44276;SDS011;29973;43.742;1.236;2022-08-18T02:04:12;9.70;;;4.15;;
44276;SDS011;29973;43.742;1.236;2022-08-18T02:06:40;9.25;;;3.30;;
44276;SDS011;29973;43.742;1.236;2022-08-18T02:09:07;7.57;;;4.00;;
44276;SDS011;29973;43.742;1.236;2022-08-18T02:11:33;10.07;;;3.45;;
44276;SDS011;29973;43.742;1.236;2022-08-18T02:13:58;8.85;;;3.80;;
44276;SDS011;29973;43.742;1.236;2022-08-18T02:16:24;12.13;;;4.20;;
44276;SDS011;29973;43.742;1.236;2022-08-18T02:18:50;9.65;;;4.28;;
44276;SDS011;29973;43.742;1.236;2022-08-18T02:21:17;7.50;;;4.07;;
44276;SDS011;29973;43.742;1.236;2022-08-18T02:23:44;8.73;;;3.78;;
44276;SDS011;29973;43.742;1.236;2022-08-18T02:26:12;7.55;;;4.15;;
44276;SDS011;29973;43.742;1.236;2022-08-18T02:28:40;10.18;;;4.10;;
44276;SDS011;29973;43.742;1.236;2022-08-18T02:31:10;9.35;;;3.80;;
44276;SDS011;29973;43.742;1.236;2022-08-18T02:33:41;11.00;;;3.63;;
44276;SDS011;29973;43.742;1.236;2022-08-18T02:36:08;13.07;;;3.72;;
44276;SDS011;29973;43.742;1.236;2022-08-18T02:38:35;10.02;;;3.35;;
44276;SDS011;29973;43.742;1.236;2022-08-18T02:41:01;12.45;;;4.00;;
44276;SDS011;29973;43.742;1.236;2022-08-18T02:43:30;11.38;;;3.92;;
44276;SDS011;29973;43.742;1.236;2022-08-18T02:45:56;11.50;;;4.05;;
44276;SDS011;29973;43.742;1.236;2022-08-18T02:48:23;10.88;;;3.83;;
44276;SDS011;29973;43.742;1.236;2022-08-18T02:51:03;7.53;;;3.75;;
44276;SDS011;29973;43.742;1.236;2022-08-18T02:53:32;9.15;;;3.95;;
44276;SDS011;29973;43.742;1.236;2022-08-18T02:56:03;10.38;;;4.10;;
44276;SDS011;29973;43.742;1.236;2022-08-18T02:58:50;12.77;;;3.83;;
44276;SDS011;29973;43.742;1.236;2022-08-18T03:01:18;10.80;;;4.20;;
44276;SDS011;29973;43.742;1.236;2022-08-18T03:03:52;11.30;;;4.13;;
44276;SDS011;29973;43.742;1.236;2022-08-18T03:06:19;10.63;;;4.45;;
44276;SDS011;29973;43.742;1.236;2022-08-18T03:08:46;10.70;;;3.78;;
44276;SDS011;29973;43.742;1.236;2022-08-18T03:11:18;5.75;;;3.83;;
44276;SDS011;29973;43.742;1.236;2022-08-18T03:13:47;8.55;;;3.95;;
44276;SDS011;29973;43.742;1.236;2022-08-18T03:16:13;9.30;;;4.47;;
44276;SDS011;29973;43.742;1.236;2022-08-18T03:18:40;9.48;;;4.38;;
44276;SDS011;29973;43.742;1.236;2022-08-18T03:21:10;12.77;;;5.13;;
44276;SDS011;29973;43.742;1.236;2022-08-18T03:23:38;6.28;;;4.20;;
44276;SDS011;29973;43.742;1.236;2022-08-18T03:26:05;11.18;;;4.32;;
44276;SDS011;29973;43.742;1.236;2022-08-18T03:28:35;8.13;;;4.05;;
44276;SDS011;29973;43.742;1.236;2022-08-18T03:31:09;8.40;;;3.90;;
44276;SDS011;29973;43.742;1.236;2022-08-18T03:33:35;11.07;;;4.50;;
44276;SDS011;29973;43.742;1.236;2022-08-18T03:36:04;9.23;;;4.20;;
44276;SDS011;29973;43.742;1.236;2022-08-18T03:38:31;9.13;;;4.07;;
44276;SDS011;29973;43.742;1.236;2022-08-18T03:40:57;7.95;;;3.58;;
44276;SDS011;29973;43.742;1.236;2022-08-18T03:43:23;11.32;;;4.47;;
44276;SDS011;29973;43.742;1.236;2022-08-18T03:45:49;9.15;;;4.95;;
44276;SDS011;29973;43.742;1.236;2022-08-18T03:48:14;10.45;;;4.18;;
44276;SDS011;29973;43.742;1.236;2022-08-18T03:50:40;14.57;;;4.47;;
44276;SDS011;29973;43.742;1.236;2022-08-18T03:53:06;11.95;;;4.20;;
44276;SDS011;29973;43.742;1.236;2022-08-18T03:55:32;11.90;;;4.03;;
44276;SDS011;29973;43.742;1.236;2022-08-18T03:57:59;10.07;;;3.63;;
44276;SDS011;29973;43.742;1.236;2022-08-18T04:00:27;13.73;;;3.70;;
44276;SDS011;29973;43.742;1.236;2022-08-18T04:02:55;7.05;;;3.70;;
44276;SDS011;29973;43.742;1.236;2022-08-18T04:05:21;10.68;;;4.78;;
44276;SDS011;29973;43.742;1.236;2022-08-18T04:07:46;12.73;;;5.30;;
44276;SDS011;29973;43.742;1.236;2022-08-18T04:10:12;13.13;;;5.10;;
44276;SDS011;29973;43.742;1.236;2022-08-18T04:12:39;10.60;;;5.63;;
44276;SDS011;29973;43.742;1.236;2022-08-18T04:15:06;15.02;;;5.35;;
44276;SDS011;29973;43.742;1.236;2022-08-18T04:17:33;12.25;;;4.75;;
44276;SDS011;29973;43.742;1.236;2022-08-18T04:19:59;10.10;;;5.03;;
44276;SDS011;29973;43.742;1.236;2022-08-18T04:22:24;9.13;;;5.20;;
44276;SDS011;29973;43.742;1.236;2022-08-18T04:24:51;14.93;;;5.03;;
44276;SDS011;29973;43.742;1.236;2022-08-18T04:27:18;11.52;;;5.85;;
44276;SDS011;29973;43.742;1.236;2022-08-18T04:29:45;17.75;;;5.97;;
44276;SDS011;29973;43.742;1.236;2022-08-18T04:32:10;14.38;;;6.57;;
44276;SDS011;29973;43.742;1.236;2022-08-18T04:34:36;10.93;;;6.18;;
44276;SDS011;29973;43.742;1.236;2022-08-18T04:37:02;14.00;;;6.93;;
44276;SDS011;29973;43.742;1.236;2022-08-18T04:39:28;14.25;;;6.45;;
44276;SDS011;29973;43.742;1.236;2022-08-18T04:41:54;14.93;;;7.65;;
44276;SDS011;29973;43.742;1.236;2022-08-18T04:44:20;10.60;;;6.45;;
44276;SDS011;29973;43.742;1.236;2022-08-18T04:46:47;12.68;;;7.18;;
44276;SDS011;29973;43.742;1.236;2022-08-18T04:49:16;14.00;;;8.02;;
44276;SDS011;29973;43.742;1.236;2022-08-18T04:51:44;14.38;;;6.70;;
44276;SDS011;29973;43.742;1.236;2022-08-18T04:54:33;14.15;;;6.68;;
44276;SDS011;29973;43.742;1.236;2022-08-18T04:57:20;7.60;;;6.05;;
44276;SDS011;29973;43.742;1.236;2022-08-18T04:59:47;11.63;;;5.50;;
44276;SDS011;29973;43.742;1.236;2022-08-18T05:02:14;12.73;;;6.32;;
44276;SDS011;29973;43.742;1.236;2022-08-18T05:04:42;11.15;;;6.07;;
44276;SDS011;29973;43.742;1.236;2022-08-18T05:07:13;13.00;;;5.45;;
44276;SDS011;29973;43.742;1.236;2022-08-18T05:09:41;14.10;;;5.70;;
44276;SDS011;29973;43.742;1.236;2022-08-18T05:12:08;11.80;;;5.70;;
44276;SDS011;29973;43.742;1.236;2022-08-18T05:14:40;11.98;;;5.78;;
44276;SDS011;29973;43.742;1.236;2022-08-18T05:17:08;14.75;;;6.15;;
44276;SDS011;29973;43.742;1.236;2022-08-18T05:19:34;11.25;;;5.13;;
44276;SDS011;29973;43.742;1.236;2022-08-18T05:22:00;13.35;;;5.78;;
44276;SDS011;29973;43.742;1.236;2022-08-18T05:24:27;11.20;;;5.22;;
44276;SDS011;29973;43.742;1.236;2022-08-18T05:26:54;10.27;;;5.18;;
44276;SDS011;29973;43.742;1.236;2022-08-18T05:29:19;9.60;;;5.00;;
44276;SDS011;29973;43.742;1.236;2022-08-18T05:31:49;6.65;;;5.10;;
44276;SDS011;29973;43.742;1.236;2022-08-18T05:34:16;10.50;;;5.57;;
44276;SDS011;29973;43.742;1.236;2022-08-18T05:41:53;11.45;;;5.78;;
44276;SDS011;29973;43.742;1.236;2022-08-18T05:44:26;10.43;;;5.45;;
44276;SDS011;29973;43.742;1.236;2022-08-18T05:46:54;9.35;;;6.05;;
44276;SDS011;29973;43.742;1.236;2022-08-18T05:49:24;10.38;;;5.60;;
44276;SDS011;29973;43.742;1.236;2022-08-18T05:51:51;13.20;;;5.30;;
44276;SDS011;29973;43.742;1.236;2022-08-18T05:57:12;10.23;;;5.63;;
44276;SDS011;29973;43.742;1.236;2022-08-18T05:59:43;13.27;;;6.18;;
44276;SDS011;29973;43.742;1.236;2022-08-18T06:04:49;14.40;;;6.65;;
44276;SDS011;29973;43.742;1.236;2022-08-18T06:07:24;9.88;;;5.35;;
44276;SDS011;29973;43.742;1.236;2022-08-18T06:10:12;7.28;;;5.25;;
44276;SDS011;29973;43.742;1.236;2022-08-18T06:12:41;11.98;;;5.72;;
44276;SDS011;29973;43.742;1.236;2022-08-18T06:17:44;16.17;;;5.85;;
44276;SDS011;29973;43.742;1.236;2022-08-18T06:20:36;15.45;;;5.40;;
44276;SDS011;29973;43.742;1.236;2022-08-18T06:23:22;12.18;;;5.72;;
44276;SDS011;29973;43.742;1.236;2022-08-18T06:28:47;10.23;;;5.30;;
44276;SDS011;29973;43.742;1.236;2022-08-18T06:31:23;10.77;;;6.40;;
44276;SDS011;29973;43.742;1.236;2022-08-18T06:36:59;21.50;;;6.90;;
44276;SDS011;29973;43.742;1.236;2022-08-18T06:39:34;18.27;;;6.72;;
44276;SDS011;29973;43.742;1.236;2022-08-18T06:42:03;22.63;;;10.23;;
44276;SDS011;29973;43.742;1.236;2022-08-18T06:44:43;14.82;;;6.60;;
44276;SDS011;29973;43.742;1.236;2022-08-18T06:50:05;11.68;;;6.72;;
44276;SDS011;29973;43.742;1.236;2022-08-18T06:52:36;12.98;;;7.65;;
44276;SDS011;29973;43.742;1.236;2022-08-18T06:55:14;11.82;;;6.68;;
44276;SDS011;29973;43.742;1.236;2022-08-18T06:58:03;15.73;;;7.90;;
44276;SDS011;29973;43.742;1.236;2022-08-18T07:00:31;14.63;;;6.45;;
44276;SDS011;29973;43.742;1.236;2022-08-18T07:03:06;13.57;;;6.38;;
44276;SDS011;29973;43.742;1.236;2022-08-18T07:05:59;13.88;;;6.68;;
44276;SDS011;29973;43.742;1.236;2022-08-18T07:11:20;11.98;;;6.20;;
44276;SDS011;29973;43.742;1.236;2022-08-18T07:13:45;15.95;;;6.65;;
44276;SDS011;29973;43.742;1.236;2022-08-18T07:16:14;8.65;;;6.38;;
44276;SDS011;29973;43.742;1.236;2022-08-18T07:18:46;15.55;;;7.15;;
44276;SDS011;29973;43.742;1.236;2022-08-18T07:21:31;11.23;;;6.10;;
44276;SDS011;29973;43.742;1.236;2022-08-18T07:23:59;14.98;;;5.97;;
44276;SDS011;29973;43.742;1.236;2022-08-18T07:26:30;11.35;;;6.55;;
44276;SDS011;29973;43.742;1.236;2022-08-18T07:29:16;12.07;;;5.65;;
44276;SDS011;29973;43.742;1.236;2022-08-18T07:31:44;9.13;;;5.05;;
44276;SDS011;29973;43.742;1.236;2022-08-18T07:34:25;12.90;;;5.00;;
44276;SDS011;29973;43.742;1.236;2022-08-18T07:37:03;7.15;;;4.32;;
44276;SDS011;29973;43.742;1.236;2022-08-18T07:39:36;11.68;;;4.38;;
44276;SDS011;29973;43.742;1.236;2022-08-18T07:45:05;13.18;;;4.32;;
44276;SDS011;29973;43.742;1.236;2022-08-18T07:50:13;15.20;;;4.95;;
44276;SDS011;29973;43.742;1.236;2022-08-18T07:52:43;6.93;;;4.03;;
44276;SDS011;29973;43.742;1.236;2022-08-18T08:00:22;5.25;;;2.97;;
44276;SDS011;29973;43.742;1.236;2022-08-18T08:03:05;8.00;;;3.35;;
44276;SDS011;29973;43.742;1.236;2022-08-18T08:17:10;5.30;;;3.88;;
44276;SDS011;29973;43.742;1.236;2022-08-18T08:20:42;10.80;;;4.55;;
44276;SDS011;29973;43.742;1.236;2022-08-18T08:25:21;7.03;;;4.38;;
44276;SDS011;29973;43.742;1.236;2022-08-18T08:30:54;6.78;;;4.53;;
44276;SDS011;29973;43.742;1.236;2022-08-18T08:33:36;8.45;;;4.68;;
44276;SDS011;29973;43.742;1.236;2022-08-18T08:36:12;16.40;;;5.60;;
44276;SDS011;29973;43.742;1.236;2022-08-18T08:38:51;11.50;;;4.35;;
44276;SDS011;29973;43.742;1.236;2022-08-18T08:41:23;13.90;;;4.55;;
44276;SDS011;29973;43.742;1.236;2022-08-18T08:46:57;7.95;;;4.50;;
44276;SDS011;29973;43.742;1.236;2022-08-18T08:51:57;11.13;;;5.20;;
44276;SDS011;29973;43.742;1.236;2022-08-18T08:54:36;9.85;;;4.50;;
44276;SDS011;29973;43.742;1.236;2022-08-18T08:57:16;7.80;;;3.65;;
44276;SDS011;29973;43.742;1.236;2022-08-18T08:59:43;9.23;;;4.63;;
44276;SDS011;29973;43.742;1.236;2022-08-18T09:23:39;9.20;;;4.70;;
44276;SDS011;29973;43.742;1.236;2022-08-18T09:29:13;9.20;;;5.20;;
44276;SDS011;29973;43.742;1.236;2022-08-18T09:37:04;6.82;;;4.90;;
44276;SDS011;29973;43.742;1.236;2022-08-18T09:39:38;10.52;;;5.47;;
44276;SDS011;29973;43.742;1.236;2022-08-18T09:45:08;7.18;;;4.38;;
44276;SDS011;29973;43.742;1.236;2022-08-18T09:52:54;8.75;;;4.32;;
44276;SDS011;29973;43.742;1.236;2022-08-18T09:58:03;5.70;;;4.22;;
44276;SDS011;29973;43.742;1.236;2022-08-18T10:00:39;6.13;;;3.70;;
44276;SDS011;29973;43.742;1.236;2022-08-18T10:03:26;10.63;;;4.43;;
44276;SDS011;29973;43.742;1.236;2022-08-18T10:05:55;9.70;;;3.42;;
44276;SDS011;29973;43.742;1.236;2022-08-18T10:08:28;5.82;;;3.25;;
44276;SDS011;29973;43.742;1.236;2022-08-18T10:16:50;9.95;;;4.25;;
44276;SDS011;29973;43.742;1.236;2022-08-18T10:19:16;7.15;;;3.72;;
44276;SDS011;29973;43.742;1.236;2022-08-18T10:24:27;5.47;;;3.10;;
44276;SDS011;29973;43.742;1.236;2022-08-18T10:26:59;6.72;;;3.28;;
44276;SDS011;29973;43.742;1.236;2022-08-18T10:37:24;5.88;;;3.33;;
44276;SDS011;29973;43.742;1.236;2022-08-18T10:40:03;7.18;;;3.75;;
44276;SDS011;29973;43.742;1.236;2022-08-18T10:45:05;6.45;;;3.55;;
44276;SDS011;29973;43.742;1.236;2022-08-18T10:47:34;9.15;;;3.85;;
44276;SDS011;29973;43.742;1.236;2022-08-18T10:50:02;5.68;;;3.45;;
44276;SDS011;29973;43.742;1.236;2022-08-18T10:52:50;5.80;;;3.25;;
44276;SDS011;29973;43.742;1.236;2022-08-18T11:06:19;4.05;;;2.92;;
44276;SDS011;29973;43.742;1.236;2022-08-18T11:08:49;4.90;;;2.58;;
44276;SDS011;29973;43.742;1.236;2022-08-18T11:11:22;4.65;;;2.95;;
44276;SDS011;29973;43.742;1.236;2022-08-18T11:19:14;6.60;;;3.63;;
44276;SDS011;29973;43.742;1.236;2022-08-18T11:21:45;6.93;;;3.20;;
44276;SDS011;29973;43.742;1.236;2022-08-18T11:24:17;5.07;;;3.50;;
44276;SDS011;29973;43.742;1.236;2022-08-18T11:26:50;6.25;;;3.20;;
44276;SDS011;29973;43.742;1.236;2022-08-18T11:32:03;6.18;;;2.45;;
44276;SDS011;29973;43.742;1.236;2022-08-18T11:34:34;3.17;;;2.63;;
44276;SDS011;29973;43.742;1.236;2022-08-18T11:37:02;6.10;;;2.50;;
44276;SDS011;29973;43.742;1.236;2022-08-18T11:39:52;4.47;;;2.30;;
44276;SDS011;29973;43.742;1.236;2022-08-18T11:42:32;4.60;;;2.53;;
44276;SDS011;29973;43.742;1.236;2022-08-18T11:45:04;5.93;;;2.67;;
44276;SDS011;29973;43.742;1.236;2022-08-18T11:47:37;3.40;;;2.45;;
44276;SDS011;29973;43.742;1.236;2022-08-18T11:50:28;3.42;;;2.03;;
44276;SDS011;29973;43.742;1.236;2022-08-18T11:53:01;6.90;;;2.53;;
44276;SDS011;29973;43.742;1.236;2022-08-18T11:55:38;6.38;;;1.95;;
44276;SDS011;29973;43.742;1.236;2022-08-18T11:58:04;3.75;;;2.10;;
44276;SDS011;29973;43.742;1.236;2022-08-18T12:00:53;2.65;;;1.80;;
44276;SDS011;29973;43.742;1.236;2022-08-18T12:06:09;3.17;;;1.70;;
44276;SDS011;29973;43.742;1.236;2022-08-18T12:08:59;2.38;;;1.73;;
44276;SDS011;29973;43.742;1.236;2022-08-18T12:11:29;2.75;;;1.50;;
44276;SDS011;29973;43.742;1.236;2022-08-18T12:14:05;2.17;;;1.77;;
44276;SDS011;29973;43.742;1.236;2022-08-18T12:16:35;1.95;;;1.50;;
44276;SDS011;29973;43.742;1.236;2022-08-18T12:19:09;1.90;;;1.60;;
44276;SDS011;29973;43.742;1.236;2022-08-18T12:21:40;4.75;;;1.67;;
44276;SDS011;29973;43.742;1.236;2022-08-18T12:26:48;5.22;;;1.92;;
44276;SDS011;29973;43.742;1.236;2022-08-18T12:29:15;5.18;;;2.00;;
44276;SDS011;29973;43.742;1.236;2022-08-18T12:31:46;2.25;;;1.60;;
44276;SDS011;29973;43.742;1.236;2022-08-18T12:34:16;6.32;;;1.45;;
44276;SDS011;29973;43.742;1.236;2022-08-18T12:36:44;1.98;;;1.70;;
44276;SDS011;29973;43.742;1.236;2022-08-18T12:39:10;3.42;;;1.50;;
44276;SDS011;29973;43.742;1.236;2022-08-18T12:41:37;1.73;;;1.50;;
44276;SDS011;29973;43.742;1.236;2022-08-18T12:44:05;2.40;;;1.50;;
44276;SDS011;29973;43.742;1.236;2022-08-18T12:46:31;2.97;;;1.60;;
44276;SDS011;29973;43.742;1.236;2022-08-18T12:48:57;1.77;;;1.20;;
44276;SDS011;29973;43.742;1.236;2022-08-18T12:51:26;2.45;;;1.63;;
44276;SDS011;29973;43.742;1.236;2022-08-18T12:53:52;3.17;;;1.50;;
44276;SDS011;29973;43.742;1.236;2022-08-18T12:56:23;2.95;;;1.70;;
44276;SDS011;29973;43.742;1.236;2022-08-18T12:58:54;2.63;;;1.10;;
44276;SDS011;29973;43.742;1.236;2022-08-18T13:01:21;4.35;;;1.60;;
44276;SDS011;29973;43.742;1.236;2022-08-18T13:03:49;2.30;;;1.20;;
44276;SDS011;29973;43.742;1.236;2022-08-18T13:06:19;2.03;;;1.40;;
44276;SDS011;29973;43.742;1.236;2022-08-18T13:08:52;2.70;;;1.33;;
44276;SDS011;29973;43.742;1.236;2022-08-18T13:11:24;2.13;;;1.17;;
44276;SDS011;29973;43.742;1.236;2022-08-18T13:13:51;1.67;;;1.15;;
44276;SDS011;29973;43.742;1.236;2022-08-18T13:16:18;1.80;;;1.33;;
44276;SDS011;29973;43.742;1.236;2022-08-18T13:18:44;2.35;;;1.13;;
44276;SDS011;29973;43.742;1.236;2022-08-18T13:21:12;2.03;;;1.30;;
44276;SDS011;29973;43.742;1.236;2022-08-18T13:23:40;4.22;;;1.73;;
44276;SDS011;29973;43.742;1.236;2022-08-18T13:26:08;1.65;;;1.45;;
44276;SDS011;29973;43.742;1.236;2022-08-18T13:28:37;2.83;;;1.50;;
44276;SDS011;29973;43.742;1.236;2022-08-18T13:31:04;1.70;;;1.30;;
44276;SDS011;29973;43.742;1.236;2022-08-18T13:33:31;2.63;;;1.35;;
44276;SDS011;29973;43.742;1.236;2022-08-18T13:35:57;2.97;;;1.40;;
44276;SDS011;29973;43.742;1.236;2022-08-18T13:38:24;2.45;;;1.40;;
44276;SDS011;29973;43.742;1.236;2022-08-18T13:40:51;4.22;;;1.60;;
44276;SDS011;29973;43.742;1.236;2022-08-18T13:43:19;1.65;;;1.40;;
44276;SDS011;29973;43.742;1.236;2022-08-18T13:45:50;2.15;;;1.30;;
44276;SDS011;29973;43.742;1.236;2022-08-18T13:48:16;3.70;;;1.80;;
44276;SDS011;29973;43.742;1.236;2022-08-18T13:50:43;1.20;;;1.10;;
44276;SDS011;29973;43.742;1.236;2022-08-18T13:53:12;3.58;;;1.63;;
44276;SDS011;29973;43.742;1.236;2022-08-18T13:55:43;3.58;;;1.35;;
44276;SDS011;29973;43.742;1.236;2022-08-18T13:58:10;4.03;;;1.65;;
44276;SDS011;29973;43.742;1.236;2022-08-18T14:00:40;2.38;;;1.80;;
44276;SDS011;29973;43.742;1.236;2022-08-18T14:03:08;2.03;;;1.67;;
44276;SDS011;29973;43.742;1.236;2022-08-18T14:05:37;2.77;;;1.83;;
44276;SDS011;29973;43.742;1.236;2022-08-18T14:08:03;2.63;;;1.60;;
44276;SDS011;29973;43.742;1.236;2022-08-18T14:10:31;2.78;;;1.60;;
44276;SDS011;29973;43.742;1.236;2022-08-18T14:12:59;1.88;;;1.50;;
44276;SDS011;29973;43.742;1.236;2022-08-18T14:15:25;2.25;;;1.50;;
44276;SDS011;29973;43.742;1.236;2022-08-18T14:17:52;3.20;;;1.50;;
44276;SDS011;29973;43.742;1.236;2022-08-18T14:20:20;2.70;;;1.75;;
44276;SDS011;29973;43.742;1.236;2022-08-18T14:23:09;3.90;;;1.90;;
44276;SDS011;29973;43.742;1.236;2022-08-18T14:25:54;1.42;;;1.33;;
44276;SDS011;29973;43.742;1.236;2022-08-18T14:28:38;1.67;;;1.35;;
44276;SDS011;29973;43.742;1.236;2022-08-18T14:31:05;2.17;;;1.45;;
44276;SDS011;29973;43.742;1.236;2022-08-18T14:33:32;2.97;;;1.23;;
44276;SDS011;29973;43.742;1.236;2022-08-18T14:36:02;3.30;;;1.33;;
44276;SDS011;29973;43.742;1.236;2022-08-18T14:38:30;2.58;;;1.33;;
44276;SDS011;29973;43.742;1.236;2022-08-18T14:40:58;1.95;;;1.60;;
44276;SDS011;29973;43.742;1.236;2022-08-18T14:43:27;2.42;;;1.27;;
44276;SDS011;29973;43.742;1.236;2022-08-18T14:45:53;2.65;;;1.25;;
44276;SDS011;29973;43.742;1.236;2022-08-18T14:48:20;4.47;;;1.35;;
44276;SDS011;29973;43.742;1.236;2022-08-18T14:50:48;4.32;;;1.45;;
44276;SDS011;29973;43.742;1.236;2022-08-18T14:53:17;1.60;;;1.30;;
44276;SDS011;29973;43.742;1.236;2022-08-18T14:55:47;1.85;;;1.35;;
44276;SDS011;29973;43.742;1.236;2022-08-18T14:58:20;3.10;;;1.20;;
44276;SDS011;29973;43.742;1.236;2022-08-18T15:00:50;1.35;;;1.20;;
44276;SDS011;29973;43.742;1.236;2022-08-18T15:03:17;2.25;;;0.98;;
44276;SDS011;29973;43.742;1.236;2022-08-18T15:05:46;6.53;;;1.50;;
44276;SDS011;29973;43.742;1.236;2022-08-18T15:08:12;3.60;;;1.30;;
44276;SDS011;29973;43.742;1.236;2022-08-18T15:10:38;3.17;;;1.00;;
44276;SDS011;29973;43.742;1.236;2022-08-18T15:13:05;1.50;;;0.93;;
44276;SDS011;29973;43.742;1.236;2022-08-18T15:15:32;1.52;;;0.80;;
44276;SDS011;29973;43.742;1.236;2022-08-18T15:17:59;1.63;;;0.80;;
44276;SDS011;29973;43.742;1.236;2022-08-18T15:20:25;1.40;;;0.73;;
44276;SDS011;29973;43.742;1.236;2022-08-18T15:22:52;2.45;;;0.93;;
44276;SDS011;29973;43.742;1.236;2022-08-18T15:25:39;3.72;;;0.80;;
44276;SDS011;29973;43.742;1.236;2022-08-18T15:28:11;2.70;;;0.82;;
44276;SDS011;29973;43.742;1.236;2022-08-18T15:30:41;1.45;;;1.10;;
44276;SDS011;29973;43.742;1.236;2022-08-18T15:33:12;1.80;;;1.15;;
44276;SDS011;29973;43.742;1.236;2022-08-18T15:35:42;1.50;;;1.20;;
44276;SDS011;29973;43.742;1.236;2022-08-18T15:38:11;2.45;;;1.00;;
44276;SDS011;29973;43.742;1.236;2022-08-18T15:40:45;1.25;;;0.80;;
44276;SDS011;29973;43.742;1.236;2022-08-18T15:43:13;2.97;;;1.10;;
44276;SDS011;29973;43.742;1.236;2022-08-18T15:45:42;1.35;;;1.00;;
44276;SDS011;29973;43.742;1.236;2022-08-18T15:48:13;0.93;;;0.80;;
44276;SDS011;29973;43.742;1.236;2022-08-18T15:50:41;0.75;;;0.60;;
44276;SDS011;29973;43.742;1.236;2022-08-18T15:53:10;1.40;;;1.00;;
44276;SDS011;29973;43.742;1.236;2022-08-18T15:55:38;1.38;;;0.95;;
44276;SDS011;29973;43.742;1.236;2022-08-18T15:58:09;1.42;;;0.80;;
44276;SDS011;29973;43.742;1.236;2022-08-18T16:00:36;1.30;;;0.80;;
44276;SDS011;29973;43.742;1.236;2022-08-18T16:03:13;0.80;;;0.70;;
44276;SDS011;29973;43.742;1.236;2022-08-18T16:05:49;2.67;;;0.82;;
44276;SDS011;29973;43.742;1.236;2022-08-18T16:08:22;1.92;;;0.80;;
44276;SDS011;29973;43.742;1.236;2022-08-18T16:10:50;1.25;;;0.63;;
44276;SDS011;29973;43.742;1.236;2022-08-18T16:13:18;1.92;;;0.93;;
44276;SDS011;29973;43.742;1.236;2022-08-18T16:15:45;0.82;;;0.70;;
44276;SDS011;29973;43.742;1.236;2022-08-18T16:18:15;3.42;;;0.95;;
44276;SDS011;29973;43.742;1.236;2022-08-18T16:20:43;1.48;;;0.90;;
44276;SDS011;29973;43.742;1.236;2022-08-18T16:23:10;2.38;;;1.00;;
44276;SDS011;29973;43.742;1.236;2022-08-18T16:25:38;2.58;;;1.02;;
44276;SDS011;29973;43.742;1.236;2022-08-18T16:28:05;3.90;;;0.80;;
44276;SDS011;29973;43.742;1.236;2022-08-18T16:30:31;1.65;;;0.70;;
44276;SDS011;29973;43.742;1.236;2022-08-18T16:33:01;1.95;;;0.90;;
44276;SDS011;29973;43.742;1.236;2022-08-18T16:35:29;0.77;;;0.68;;
44276;SDS011;29973;43.742;1.236;2022-08-18T16:37:56;2.75;;;1.40;;
44276;SDS011;29973;43.742;1.236;2022-08-18T16:40:28;2.45;;;1.10;;
44276;SDS011;29973;43.742;1.236;2022-08-18T16:42:54;2.25;;;1.23;;
44276;SDS011;29973;43.742;1.236;2022-08-18T16:45:20;1.33;;;0.75;;
44276;SDS011;29973;43.742;1.236;2022-08-18T16:47:46;2.60;;;0.93;;
44276;SDS011;29973;43.742;1.236;2022-08-18T16:50:13;3.53;;;1.05;;
44276;SDS011;29973;43.742;1.236;2022-08-18T16:52:40;2.47;;;1.20;;
44276;SDS011;29973;43.742;1.236;2022-08-18T16:55:06;3.22;;;1.42;;
44276;SDS011;29973;43.742;1.236;2022-08-18T16:57:33;2.95;;;1.83;;
44276;SDS011;29973;43.742;1.236;2022-08-18T17:00:25;3.75;;;1.95;;
44276;SDS011;29973;43.742;1.236;2022-08-18T17:03:10;2.70;;;1.90;;
44276;SDS011;29973;43.742;1.236;2022-08-18T17:05:59;4.22;;;1.77;;
44276;SDS011;29973;43.742;1.236;2022-08-18T17:08:36;5.63;;;2.17;;
44276;SDS011;29973;43.742;1.236;2022-08-18T17:11:05;4.28;;;2.05;;
44276;SDS011;29973;43.742;1.236;2022-08-18T17:13:34;3.13;;;1.35;;
44276;SDS011;29973;43.742;1.236;2022-08-18T17:16:01;4.03;;;1.80;;
44276;SDS011;29973;43.742;1.236;2022-08-18T17:18:28;3.70;;;1.60;;
44276;SDS011;29973;43.742;1.236;2022-08-18T17:20:55;6.18;;;2.13;;
44276;SDS011;29973;43.742;1.236;2022-08-18T17:23:25;3.10;;;1.92;;
44276;SDS011;29973;43.742;1.236;2022-08-18T17:25:50;3.63;;;1.38;;
44276;SDS011;29973;43.742;1.236;2022-08-18T17:28:20;3.70;;;2.05;;
44276;SDS011;29973;43.742;1.236;2022-08-18T17:30:52;5.70;;;2.20;;
44276;SDS011;29973;43.742;1.236;2022-08-18T17:33:20;5.10;;;2.00;;
44276;SDS011;29973;43.742;1.236;2022-08-18T17:35:49;6.85;;;2.17;;